Time;durP1;ratioP1;P1;durP2;ratioP2;P2;SDS_P1;SDS_P2;PMS_P1;PMS_P2;Temp;Humidity;BMP_temperature;BMP_pressure;BME280_temperature;BME280_humidity;BME280_pressure;Samples;Min_cycle;Max_cycle;Signal;HPM_P1;HPM_P2
2021/08/15 00:02:03;;;;;;;;;;;;;;;15.01;100.00;100910.66;5094882;28;20048;-70
2021/08/15 00:04:29;;;;;;;;;;;;;;;14.98;100.00;100904.63;5095202;28;19960;-70
2021/08/15 00:06:56;;;;;;;;;;;;;;;14.89;100.00;100912.69;5094765;28;20018;-70
2021/08/15 00:09:23;;;;;;;;;;;;;;;14.83;100.00;100907.84;5076864;28;20031;-71
2021/08/15 00:11:49;;;;;;;;;;;;;;;14.79;100.00;100909.16;5094638;28;19930;-71
2021/08/15 00:14:15;;;;;;;;;;;;;;;14.78;100.00;100912.00;5094976;28;20020;-67
2021/08/15 00:16:41;;;;;;;;;;;;;;;14.73;100.00;100909.75;5094777;28;20371;-70
2021/08/15 00:19:08;;;;;;;;;;;;;;;14.68;100.00;100906.59;5094588;28;20015;-67
2021/08/15 00:21:34;;;;;;;;;;;;;;;14.63;100.00;100906.13;5094832;28;20342;-67
2021/08/15 00:24:03;;;;;;;;;;;;;;;14.57;100.00;100902.97;5094511;28;19934;-67
2021/08/15 00:26:29;;;;;;;;;;;;;;;14.50;100.00;100907.31;5094551;28;20019;-67
2021/08/15 00:28:55;;;;;;;;;;;;;;;14.45;100.00;100908.75;5094542;28;19924;-67
2021/08/15 00:31:21;;;;;;;;;;;;;;;14.38;100.00;100903.88;5094269;28;19934;-70
2021/08/15 00:33:48;;;;;;;;;;;;;;;14.30;100.00;100905.63;5094497;28;20023;-71
2021/08/15 00:36:14;;;;;;;;;;;;;;;14.23;100.00;100906.19;5094223;28;19924;-70
2021/08/15 00:38:40;;;;;;;;;;;;;;;14.19;100.00;100909.31;5094251;28;19928;-71
2021/08/15 00:41:08;;;;;;;;;;;;;;;14.17;100.00;100911.34;5094168;28;20015;-70
2021/08/15 00:43:34;;;;;;;;;;;;;;;14.17;100.00;100906.75;5094156;28;19963;-67
2021/08/15 00:46:06;;;;;;;;;;;;;;;14.16;100.00;100906.91;5094225;28;20440;-71
2021/08/15 00:48:32;;;;;;;;;;;;;;;14.13;100.00;100910.78;5093988;28;20276;-67
2021/08/15 00:50:59;;;;;;;;;;;;;;;14.16;100.00;100913.22;5094139;28;19924;-67
2021/08/15 00:53:25;;;;;;;;;;;;;;;14.14;100.00;100912.50;5093631;28;20035;-69
2021/08/15 00:55:51;;;;;;;;;;;;;;;14.11;100.00;100909.19;5094032;28;20007;-67
2021/08/15 00:58:19;;;;;;;;;;;;;;;14.07;100.00;100911.34;5094129;28;20312;-71
2021/08/15 01:00:45;;;;;;;;;;;;;;;14.01;100.00;100914.66;5093581;28;19924;-69
2021/08/15 01:03:11;;;;;;;;;;;;;;;13.93;100.00;100909.91;5093994;28;19924;-70
2021/08/15 01:05:38;;;;;;;;;;;;;;;13.86;100.00;100911.47;5093679;28;20360;-69
2021/08/15 01:08:05;;;;;;;;;;;;;;;13.78;100.00;100905.88;5093884;28;20040;-69
2021/08/15 01:10:31;;;;;;;;;;;;;;;13.73;100.00;100909.00;5093423;28;19924;-69
2021/08/15 01:12:58;;;;;;;;;;;;;;;13.70;100.00;100912.03;5093435;28;19924;-67
2021/08/15 01:15:27;;;;;;;;;;;;;;;13.63;100.00;100905.38;5093810;28;19955;-66
2021/08/15 01:17:54;;;;;;;;;;;;;;;13.56;100.00;100900.50;5093226;28;20290;-66
2021/08/15 01:20:20;;;;;;;;;;;;;;;13.52;100.00;100909.97;5093659;28;20080;-70
2021/08/15 01:22:47;;;;;;;;;;;;;;;13.49;100.00;100906.66;5093491;28;19935;-70
2021/08/15 01:25:13;;;;;;;;;;;;;;;13.44;100.00;100907.09;5093493;28;19924;-66
2021/08/15 01:27:42;;;;;;;;;;;;;;;13.40;100.00;100905.63;5093318;28;20027;-66
2021/08/15 01:30:11;;;;;;;;;;;;;;;13.36;100.00;100904.16;5093288;28;19930;-67
2021/08/15 01:32:38;;;;;;;;;;;;;;;13.33;100.00;100904.44;5093289;28;19937;-66
2021/08/15 01:35:05;;;;;;;;;;;;;;;13.27;100.00;100907.69;5093119;28;19924;-66
2021/08/15 01:37:31;;;;;;;;;;;;;;;13.21;100.00;100910.00;5093125;28;20091;-66
2021/08/15 01:40:01;;;;;;;;;;;;;;;13.20;100.00;100913.72;5093465;28;20023;-67
2021/08/15 01:42:28;;;;;;;;;;;;;;;13.18;100.00;100914.84;5074838;28;19928;-67
2021/08/15 01:44:54;;;;;;;;;;;;;;;13.13;100.00;100904.34;5093051;28;19979;-66
2021/08/15 01:47:22;;;;;;;;;;;;;;;13.07;100.00;100902.19;5093141;28;19932;-69
2021/08/15 01:49:48;;;;;;;;;;;;;;;13.00;100.00;100906.44;5093003;28;20019;-67
2021/08/15 01:52:14;;;;;;;;;;;;;;;13.02;100.00;100907.19;5092874;28;20019;-67
2021/08/15 01:54:40;;;;;;;;;;;;;;;12.98;100.00;100911.19;5092914;28;20434;-67
2021/08/15 01:57:07;;;;;;;;;;;;;;;12.98;100.00;100913.91;5074742;28;20011;-67
2021/08/15 01:59:33;;;;;;;;;;;;;;;13.01;100.00;100908.16;5092655;28;20015;-67
2021/08/15 02:02:00;;;;;;;;;;;;;;;13.00;100.00;100906.44;5092863;28;19924;-68
2021/08/15 02:04:30;;;;;;;;;;;;;;;13.00;100.00;100907.31;5092572;28;19963;-69
2021/08/15 02:06:56;;;;;;;;;;;;;;;12.99;100.00;100907.47;5092599;28;20009;-71
2021/08/15 02:09:22;;;;;;;;;;;;;;;12.97;100.00;100912.16;5092769;28;19977;-67
2021/08/15 02:11:49;;;;;;;;;;;;;;;12.96;100.00;100910.44;5092294;28;19967;-69
2021/08/15 02:14:15;;;;;;;;;;;;;;;12.97;100.00;100917.63;5092740;28;19974;-67
2021/08/15 02:16:41;;;;;;;;;;;;;;;12.90;100.00;100915.41;5074110;28;20027;-66
2021/08/15 02:19:07;;;;;;;;;;;;;;;12.85;100.00;100915.00;5092520;28;19924;-66
2021/08/15 02:21:35;;;;;;;;;;;;;;;12.83;100.00;100905.22;5091863;28;19924;-66
2021/08/15 02:24:01;;;;;;;;;;;;;;;12.82;100.00;100895.31;5092146;28;20007;-67
2021/08/15 02:26:28;;;;;;;;;;;;;;;12.80;100.00;100898.19;5092382;28;20027;-67
2021/08/15 02:28:54;;;;;;;;;;;;;;;12.76;100.00;100888.56;5092004;28;20014;-67
2021/08/15 02:31:20;;;;;;;;;;;;;;;12.73;100.00;100895.13;5092259;28;20479;-67
2021/08/15 02:33:46;;;;;;;;;;;;;;;12.69;100.00;100900.97;5092143;28;19924;-67
2021/08/15 02:36:13;;;;;;;;;;;;;;;12.66;100.00;100898.53;5092283;28;19993;-67
2021/08/15 02:38:40;;;;;;;;;;;;;;;12.61;100.00;100895.34;5092012;28;19956;-69
2021/08/15 02:41:07;;;;;;;;;;;;;;;12.59;100.00;100891.88;5091886;28;20431;-69
2021/08/15 02:43:33;;;;;;;;;;;;;;;12.56;100.00;100901.19;5092128;28;19955;-70
2021/08/15 02:46:00;;;;;;;;;;;;;;;12.49;100.00;100898.16;5092011;28;19950;-70
2021/08/15 02:48:27;;;;;;;;;;;;;;;12.47;100.00;100899.28;5091863;28;19924;-69
2021/08/15 02:50:53;;;;;;;;;;;;;;;12.43;100.00;100893.22;5091959;28;19930;-69
2021/08/15 02:53:19;;;;;;;;;;;;;;;12.39;100.00;100898.06;5073727;28;20014;-70
2021/08/15 02:55:47;;;;;;;;;;;;;;;12.38;100.00;100893.59;5091485;28;20034;-70
2021/08/15 02:58:13;;;;;;;;;;;;;;;12.34;100.00;100892.16;5091555;28;19924;-70
2021/08/15 03:00:39;;;;;;;;;;;;;;;12.28;100.00;100894.53;5091574;28;20015;-70
2021/08/15 03:03:06;;;;;;;;;;;;;;;12.27;100.00;100882.78;5091920;28;20349;-67
2021/08/15 03:05:32;;;;;;;;;;;;;;;12.22;100.00;100882.31;5091606;28;20026;-69
2021/08/15 03:07:58;;;;;;;;;;;;;;;12.19;100.00;100882.59;5091749;28;20014;-71
2021/08/15 03:10:25;;;;;;;;;;;;;;;12.16;100.00;100871.94;5091584;28;20022;-70
2021/08/15 03:12:52;;;;;;;;;;;;;;;12.13;100.00;100877.66;5091686;28;20334;-67
2021/08/15 03:15:19;;;;;;;;;;;;;;;12.09;100.00;100866.16;5091624;28;20315;-70
2021/08/15 03:17:45;;;;;;;;;;;;;;;12.04;100.00;100876.59;5091534;28;19931;-70
2021/08/15 03:20:11;;;;;;;;;;;;;;;12.01;100.00;100868.69;5091678;28;19963;-70
2021/08/15 03:22:38;;;;;;;;;;;;;;;11.98;100.00;100871.69;5091517;28;20006;-71
2021/08/15 03:25:04;;;;;;;;;;;;;;;11.93;100.00;100879.31;5073471;28;20476;-71
2021/08/15 03:27:31;;;;;;;;;;;;;;;11.93;100.00;100882.91;5091398;28;20371;-71
2021/08/15 03:29:58;;;;;;;;;;;;;;;11.91;100.00;100873.16;5091623;28;20022;-71
2021/08/15 03:32:25;;;;;;;;;;;;;;;11.90;100.00;100869.56;5091465;28;19931;-71
2021/08/15 03:34:51;;;;;;;;;;;;;;;11.86;100.00;100871.66;5094886;28;20019;-71
2021/08/15 03:37:18;;;;;;;;;;;;;;;11.83;100.00;100874.66;5095571;28;20030;-71
2021/08/15 03:39:44;;;;;;;;;;;;;;;11.83;100.00;100879.25;5095336;28;19931;-71
2021/08/15 03:42:10;;;;;;;;;;;;;;;11.87;100.00;100886.16;5095630;28;20406;-71
2021/08/15 03:44:36;;;;;;;;;;;;;;;11.80;100.00;100888.53;5095338;28;20035;-68
2021/08/15 03:47:04;;;;;;;;;;;;;;;11.72;100.00;100882.88;5095492;28;19967;-67
2021/08/15 03:49:30;;;;;;;;;;;;;;;11.69;100.00;100886.72;5095647;28;20499;-67
2021/08/15 03:51:57;;;;;;;;;;;;;;;11.66;100.00;100876.06;5095055;28;20010;-67
2021/08/15 03:54:23;;;;;;;;;;;;;;;11.67;100.00;100879.66;5095391;28;20382;-67
2021/08/15 03:56:50;;;;;;;;;;;;;;;11.67;100.00;100882.38;5094910;28;20015;-68
2021/08/15 03:59:17;;;;;;;;;;;;;;;11.66;100.00;100886.09;5095255;28;19967;-66
2021/08/15 04:01:43;;;;;;;;;;;;;;;11.66;100.00;100886.09;5095094;28;19959;-66
2021/08/15 04:04:11;;;;;;;;;;;;;;;11.63;100.00;100881.78;5095207;28;20411;-66
2021/08/15 04:06:37;;;;;;;;;;;;;;;11.63;100.00;100889.94;5094967;28;20010;-66
2021/08/15 04:09:04;;;;;;;;;;;;;;;11.65;100.00;100887.06;5094831;28;19928;-66
2021/08/15 04:11:30;;;;;;;;;;;;;;;11.70;100.00;100888.44;5095019;28;19932;-70
2021/08/15 04:13:57;;;;;;;;;;;;;;;11.72;100.00;100885.59;5094807;28;20027;-70
2021/08/15 04:16:23;;;;;;;;;;;;;;;11.77;100.00;100883.34;5094901;28;19963;-70
2021/08/15 04:18:49;;;;;;;;;;;;;;;11.81;100.00;100883.94;5094675;28;19974;-71
2021/08/15 04:21:17;;;;;;;;;;;;;;;11.84;100.00;100889.16;5076494;28;20447;-70
2021/08/15 04:23:43;;;;;;;;;;;;;;;11.88;100.00;100887.88;5094763;28;20034;-70
2021/08/15 04:26:09;;;;;;;;;;;;;;;11.96;100.00;100877.25;5094628;28;20022;-70
2021/08/15 04:28:36;;;;;;;;;;;;;;;11.98;100.00;100874.41;5094482;28;19969;-70
2021/08/15 04:31:02;;;;;;;;;;;;;;;12.08;100.00;100864.47;5094475;28;20023;-70
2021/08/15 04:33:29;;;;;;;;;;;;;;;12.16;100.00;100871.94;5094737;28;20032;-70
2021/08/15 04:35:55;;;;;;;;;;;;;;;12.26;100.00;100858.44;5094524;28;20030;-70
2021/08/15 04:38:24;;;;;;;;;;;;;;;12.44;100.00;100861.41;5094254;28;19930;-70
2021/08/15 04:40:50;;;;;;;;;;;;;;;12.56;100.00;100872.09;5076233;28;20342;-70
2021/08/15 04:43:17;;;;;;;;;;;;;;;12.74;100.00;100868.75;5094368;28;20362;-70
2021/08/15 04:45:45;;;;;;;;;;;;;;;12.87;100.00;100863.09;5093447;28;20482;-70
2021/08/15 04:48:12;;;;;;;;;;;;;;;13.03;100.00;100878.94;5093894;28;20023;-70
2021/08/15 04:50:38;;;;;;;;;;;;;;;13.21;100.00;100876.41;5094438;28;20364;-67
2021/08/15 04:53:04;;;;;;;;;;;;;;;13.41;100.00;100877.34;5094184;28;20291;-66
2021/08/15 04:55:32;;;;;;;;;;;;;;;13.57;100.00;100871.38;5094047;28;19924;-66
2021/08/15 04:57:59;;;;;;;;;;;;;;;13.76;100.00;100883.31;5070272;28;20015;-67
2021/08/15 05:00:25;;;;;;;;;;;;;;;13.90;100.00;100872.84;5093822;28;20356;-67
2021/08/15 05:02:51;;;;;;;;;;;;;;;14.12;100.00;100869.97;5093866;28;20051;-67
2021/08/15 05:05:18;;;;;;;;;;;;;;;14.31;100.00;100871.81;5094044;28;19956;-67
2021/08/15 05:07:44;;;;;;;;;;;;;;;14.47;100.00;100861.19;5093424;28;20384;-68
2021/08/15 05:10:11;;;;;;;;;;;;;;;14.66;100.00;100862.19;5093793;28;19971;-69
2021/08/15 05:12:38;;;;;;;;;;;;;;;14.83;100.00;100855.94;5093569;28;20022;-69
2021/08/15 05:15:05;;;;;;;;;;;;;;;15.04;100.00;100855.69;5069311;28;19928;-70
2021/08/15 05:17:31;;;;;;;;;;;;;;;15.23;100.00;100854.75;5074639;28;20015;-70
2021/08/15 05:19:57;;;;;;;;;;;;;;;15.42;100.00;100855.66;5079039;28;19924;-70
2021/08/15 05:22:24;;;;;;;;;;;;;;;15.60;100.00;100846.59;5093669;28;20032;-67
2021/08/15 05:24:50;;;;;;;;;;;;;;;15.76;100.00;100849.50;5090908;28;20360;-67
2021/08/15 05:27:16;;;;;;;;;;;;;;;15.95;100.00;100844.94;5076005;28;19932;-67
2021/08/15 05:29:45;;;;;;;;;;;;;;;16.06;100.00;100844.66;5080356;28;20257;-67
2021/08/15 05:32:11;;;;;;;;;;;;;;;16.06;100.00;100840.06;5055136;28;20020;-69
2021/08/15 05:34:37;;;;;;;;;;;;;;;16.09;100.00;100838.03;5079530;28;20314;-70
2021/08/15 05:37:04;;;;;;;;;;;;;;;16.24;100.00;100834.56;5092409;28;19962;-71
2021/08/15 05:39:30;;;;;;;;;;;;;;;16.42;100.00;100836.41;5044948;28;19924;-70
2021/08/15 05:41:56;;;;;;;;;;;;;;;16.83;100.00;100839.41;5072959;28;19971;-66
2021/08/15 05:44:23;;;;;;;;;;;;;;;17.15;100.00;100845.25;5077493;28;19963;-67
2021/08/15 05:46:50;;;;;;;;;;;;;;;17.36;100.00;100844.81;5092893;28;20016;-67
2021/08/15 05:49:17;;;;;;;;;;;;;;;17.49;100.00;100847.06;5076767;28;20019;-67
2021/08/15 05:51:43;;;;;;;;;;;;;;;18.05;100.00;100836.38;5072566;28;19925;-71
2021/08/15 05:54:09;;;;;;;;;;;;;;;18.47;100.00;100838.09;5073902;28;20015;-71
2021/08/15 05:56:36;;;;;;;;;;;;;;;18.98;100.00;100832.31;5072428;28;20026;-71
2021/08/15 05:59:03;;;;;;;;;;;;;;;19.48;100.00;100826.59;5086177;28;19931;-71
2021/08/15 06:01:33;;;;;;;;;;;;;;;19.38;100.00;100821.31;5091034;28;20027;-71
2021/08/15 06:04:00;;;;;;;;;;;;;;;19.16;100.00;100823.84;5074998;28;19928;-66
2021/08/15 06:06:27;;;;;;;;;;;;;;;19.18;100.00;100824.50;5083374;28;20048;-65
2021/08/15 06:08:53;;;;;;;;;;;;;;;19.30;100.00;100819.47;5071860;28;20039;-71
2021/08/15 06:11:19;;;;;;;;;;;;;;;19.65;100.00;100830.09;5080532;28;20018;-71
2021/08/15 06:13:45;;;;;;;;;;;;;;;19.83;100.00;100824.31;5073788;28;20352;-71
2021/08/15 06:16:12;;;;;;;;;;;;;;;19.40;100.00;100830.22;5077488;28;20022;-71
2021/08/15 06:18:38;;;;;;;;;;;;;;;19.46;100.00;100835.03;5092145;28;19967;-65
2021/08/15 06:21:05;;;;;;;;;;;;;;;20.06;100.00;100829.84;5084192;28;20030;-65
2021/08/15 06:23:32;;;;;;;;;;;;;;;20.45;100.00;100823.28;5072351;28;20015;-65
2021/08/15 06:25:58;;;;;;;;;;;;;;;20.67;100.00;100817.88;5073209;28;19925;-66
2021/08/15 06:28:25;;;;;;;;;;;;;;;20.67;100.00;100823.41;5072274;28;19924;-70
2021/08/15 06:30:51;;;;;;;;;;;;;;;21.18;100.00;100819.94;5073114;28;19924;-65
2021/08/15 06:33:17;;;;;;;;;;;;;;;21.50;100.00;100821.38;5072784;28;20031;-65
2021/08/15 06:35:44;;;;;;;;;;;;;;;21.98;100.00;100823.63;5088843;28;20038;-65
2021/08/15 06:38:11;;;;;;;;;;;;;;;22.29;100.00;100824.28;5080207;28;20027;-65
2021/08/15 06:40:38;;;;;;;;;;;;;;;22.07;100.00;100832.59;5072921;28;20018;-65
2021/08/15 06:43:05;;;;;;;;;;;;;;;22.22;100.00;100825.09;5071922;28;20344;-70
2021/08/15 06:45:31;;;;;;;;;;;;;;;22.26;100.00;100814.50;5073483;28;19971;-72
2021/08/15 06:47:57;;;;;;;;;;;;;;;22.13;100.00;100815.25;5086914;28;19978;-70
2021/08/15 06:50:23;;;;;;;;;;;;;;;22.01;100.00;100820.44;5091157;28;19924;-71
2021/08/15 06:52:50;;;;;;;;;;;;;;;22.18;100.00;100823.81;5091385;28;19951;-64
2021/08/15 06:55:17;;;;;;;;;;;;;;;22.21;100.00;100828.91;5079247;28;19977;-65
2021/08/15 06:57:44;;;;;;;;;;;;;;;22.14;100.00;100816.97;5091528;28;19924;-65
2021/08/15 07:00:10;;;;;;;;;;;;;;;22.08;100.00;100829.66;5090701;28;19959;-64
2021/08/15 07:02:38;;;;;;;;;;;;;;;21.94;100.00;100827.84;5091709;28;20011;-62
2021/08/15 07:05:05;;;;;;;;;;;;;;;21.80;100.00;100832.34;5090199;28;19924;-65
2021/08/15 07:07:31;;;;;;;;;;;;;;;22.29;100.00;100838.13;5078912;28;19928;-65
2021/08/15 07:09:57;;;;;;;;;;;;;;;22.36;100.00;100831.63;5074537;28;20028;-65
2021/08/15 07:12:25;;;;;;;;;;;;;;;22.76;100.00;100830.22;5084112;28;19948;-66
2021/08/15 07:14:51;;;;;;;;;;;;;;;22.88;100.00;100817.53;5070207;28;19924;-69
2021/08/15 07:17:18;;;;;;;;;;;;;;;22.52;100.00;100824.94;5071082;28;20431;-70
2021/08/15 07:19:44;;;;;;;;;;;;;;;22.14;100.00;100839.06;5070826;28;19963;-68
2021/08/15 07:22:10;;;;;;;;;;;;;;;22.50;100.00;100838.13;5081621;28;19936;-66
2021/08/15 07:24:37;;;;;;;;;;;;;;;22.35;100.00;100840.13;5075536;28;20005;-66
2021/08/15 07:27:03;;;;;;;;;;;;;;;22.21;100.00;100837.22;5074720;28;20011;-67
2021/08/15 07:29:31;;;;;;;;;;;;;;;22.31;100.00;100833.25;5079929;28;20451;-71
2021/08/15 07:31:57;;;;;;;;;;;;;;;22.83;100.00;100837.50;5077086;28;20372;-70
2021/08/15 07:34:23;;;;;;;;;;;;;;;22.61;100.00;100831.19;5091402;28;19967;-66
2021/08/15 07:36:50;;;;;;;;;;;;;;;23.02;100.00;100816.56;5081685;28;19930;-66
2021/08/15 07:39:16;;;;;;;;;;;;;;;23.38;100.00;100817.38;5091126;28;19932;-67
2021/08/15 07:41:43;;;;;;;;;;;;;;;23.29;100.00;100815.84;5085907;28;19924;-70
2021/08/15 07:44:09;;;;;;;;;;;;;;;23.10;100.00;100812.72;5089410;28;20419;-67
2021/08/15 07:46:37;;;;;;;;;;;;;;;22.54;100.00;100824.75;5075911;28;20050;-68
2021/08/15 07:49:03;;;;;;;;;;;;;;;22.26;100.00;100833.88;5072228;28;19963;-70
2021/08/15 07:51:29;;;;;;;;;;;;;;;22.40;100.00;100816.34;5071014;28;19960;-72
2021/08/15 07:53:56;;;;;;;;;;;;;;;22.73;100.00;100828.72;5085788;28;19932;-72
2021/08/15 07:56:22;;;;;;;;;;;;;;;23.11;100.00;100822.75;5091104;28;20019;-72
2021/08/15 07:58:48;;;;;;;;;;;;;;;23.59;100.00;100824.69;5090892;28;20010;-72
2021/08/15 08:01:16;;;;;;;;;;;;;;;23.95;100.00;100819.91;5091101;28;19924;-67
2021/08/15 08:03:43;;;;;;;;;;;;;;;24.36;100.00;100799.44;5090558;28;20039;-67
2021/08/15 08:06:10;;;;;;;;;;;;;;;24.37;100.00;100798.34;5090889;28;20475;-68
2021/08/15 08:08:36;;;;;;;;;;;;;;;24.72;100.00;100810.09;5090847;28;19932;-66
2021/08/15 08:11:02;;;;;;;;;;;;;;;25.01;100.00;100804.25;5090925;28;20022;-66
2021/08/15 08:13:29;;;;;;;;;;;;;;;25.26;100.00;100806.31;5090850;28;19931;-69
2021/08/15 08:15:55;;;;;;;;;;;;;;;25.32;100.00;100797.94;5090624;28;19928;-65
2021/08/15 08:18:22;;;;;;;;;;;;;;;25.28;93.78;100801.34;5090879;28;20342;-66
2021/08/15 08:20:49;;;;;;;;;;;;;;;25.09;97.75;100792.88;5085409;28;19928;-65
2021/08/15 08:23:16;;;;;;;;;;;;;;;25.14;96.40;100790.31;5075558;28;19929;-66
2021/08/15 08:25:44;;;;;;;;;;;;;;;25.30;99.37;100791.75;5074161;28;19970;-66
2021/08/15 08:28:11;;;;;;;;;;;;;;;25.62;94.92;100793.75;5083287;28;19928;-66
2021/08/15 08:30:37;;;;;;;;;;;;;;;25.55;96.53;100789.06;5078450;28;19970;-66
2021/08/15 08:33:04;;;;;;;;;;;;;;;25.54;93.12;100792.91;5074589;28;20011;-65
2021/08/15 08:35:31;;;;;;;;;;;;;;;25.69;94.91;100789.00;5085224;28;19978;-70
2021/08/15 08:37:58;;;;;;;;;;;;;;;25.69;91.85;100786.22;5094081;28;20459;-69
2021/08/15 08:40:25;;;;;;;;;;;;;;;25.26;86.31;100786.84;5094026;28;20014;-69
2021/08/15 08:42:51;;;;;;;;;;;;;;;25.61;88.61;100778.16;5094406;28;20391;-67
2021/08/15 08:45:19;;;;;;;;;;;;;;;25.86;82.43;100767.91;5093943;28;20369;-70
2021/08/15 08:47:47;;;;;;;;;;;;;;;26.50;85.99;100765.03;5094033;28;20403;-69
2021/08/15 08:50:13;;;;;;;;;;;;;;;26.55;83.27;100765.22;5093879;28;20031;-66
2021/08/15 08:52:40;;;;;;;;;;;;;;;26.64;83.71;100765.75;5092822;28;20490;-71
2021/08/15 08:55:08;;;;;;;;;;;;;;;26.60;78.90;100761.72;5094066;28;20380;-66
2021/08/15 08:57:35;;;;;;;;;;;;;;;26.89;84.46;100774.06;5093708;28;19924;-69
2021/08/15 09:00:01;;;;;;;;;;;;;;;26.92;79.15;100775.53;5093992;28;20354;-65
2021/08/15 09:02:28;;;;;;;;;;;;;;;26.56;78.69;100771.63;5094006;28;19968;-69
2021/08/15 09:04:54;;;;;;;;;;;;;;;26.31;80.53;100763.28;5093776;28;20026;-68
2021/08/15 09:07:22;;;;;;;;;;;;;;;25.60;83.91;100763.38;5075640;28;20027;-70
2021/08/15 09:09:54;;;;;;;;;;;;;;;25.86;85.47;100762.34;5093285;28;19924;-68
2021/08/15 09:12:32;;;;;;;;;;;;;;;25.45;93.03;100766.47;5094141;28;19963;-69
2021/08/15 09:15:06;;;;;;;;;;;;;;;25.29;90.22;100772.53;5093580;28;20019;-70
2021/08/15 09:17:34;;;;;;;;;;;;;;;25.63;92.78;100775.97;5093613;28;19931;-70
2021/08/15 09:20:00;;;;;;;;;;;;;;;26.04;86.82;100769.09;5093534;28;19928;-70
2021/08/15 09:22:28;;;;;;;;;;;;;;;26.57;84.90;100763.03;5093542;28;19951;-66
2021/08/15 09:24:55;;;;;;;;;;;;;;;27.05;75.93;100760.59;5093430;28;20018;-70
2021/08/15 09:27:27;;;;;;;;;;;;;;;27.32;74.94;100761.09;5086363;28;19936;-72
2021/08/15 09:30:07;;;;;;;;;;;;;;;26.77;75.09;100766.72;5073002;28;20011;-65
2021/08/15 09:32:34;;;;;;;;;;;;;;;26.35;83.19;100778.44;5082553;28;20383;-66
2021/08/15 09:35:01;;;;;;;;;;;;;;;26.34;84.12;100769.25;5074143;28;20383;-66
2021/08/15 09:37:29;;;;;;;;;;;;;;;26.59;82.24;100759.16;5075792;28;20365;-67
2021/08/15 09:39:55;;;;;;;;;;;;;;;26.68;83.32;100757.78;5084187;28;19951;-67
2021/08/15 09:42:39;;;;;;;;;;;;;;;27.19;78.64;100759.34;5092860;28;20367;-66
2021/08/15 09:45:05;;;;;;;;;;;;;;;27.47;70.78;100744.00;5091703;28;20445;-66
2021/08/15 09:47:32;;;;;;;;;;;;;;;27.11;68.63;100736.53;5074113;28;20054;-66
2021/08/15 09:49:58;;;;;;;;;;;;;;;27.69;63.17;100724.78;5088067;28;20020;-66
2021/08/15 09:52:37;;;;;;;;;;;;;;;27.56;65.54;100725.81;5083050;28;20417;-70
2021/08/15 09:55:04;;;;;;;;;;;;;;;28.00;63.86;100724.72;5085145;28;19932;-72
2021/08/15 09:57:33;;;;;;;;;;;;;;;28.12;67.23;100724.78;5091889;28;19935;-66
2021/08/15 10:00:00;;;;;;;;;;;;;;;27.89;65.70;100723.63;5089711;28;19928;-67
2021/08/15 10:02:26;;;;;;;;;;;;;;;27.99;69.62;100723.84;5072715;28;20377;-65
2021/08/15 10:04:55;;;;;;;;;;;;;;;27.86;68.01;100712.91;5082958;28;20026;-65
2021/08/15 10:07:21;;;;;;;;;;;;;;;26.99;68.32;100709.47;5082988;28;20014;-64
2021/08/15 10:09:48;;;;;;;;;;;;;;;27.04;72.11;100700.41;5092449;28;19928;-70
2021/08/15 10:12:14;;;;;;;;;;;;;;;27.14;73.06;100703.50;5092946;28;20014;-71
2021/08/15 10:14:42;;;;;;;;;;;;;;;27.37;67.05;100696.34;5092280;28;19924;-71
2021/08/15 10:17:11;;;;;;;;;;;;;;;27.90;62.98;100680.72;5092366;28;20170;-65
2021/08/15 10:19:38;;;;;;;;;;;;;;;28.17;60.43;100686.69;5092719;28;19994;-71
2021/08/15 10:22:05;;;;;;;;;;;;;;;27.60;63.29;100689.13;5092220;28;20011;-71
2021/08/15 10:24:44;;;;;;;;;;;;;;;27.42;63.36;100693.69;5089109;28;20001;-69
2021/08/15 10:27:31;;;;;;;;;;;;;;;27.75;68.54;100692.31;5072797;28;20007;-70
2021/08/15 10:29:58;;;;;;;;;;;;;;;27.16;61.37;100692.94;5072071;28;20364;-64
2021/08/15 10:32:25;;;;;;;;;;;;;;;27.34;58.05;100702.34;5071738;28;20340;-70
2021/08/15 10:35:18;;;;;;;;;;;;;;;27.38;55.97;100698.88;5072507;28;20362;-65
2021/08/15 10:37:45;;;;;;;;;;;;;;;26.98;56.37;100701.34;5091951;28;19924;-65
2021/08/15 10:40:30;;;;;;;;;;;;;;;26.69;59.23;100701.03;5089859;28;20358;-70
2021/08/15 10:42:56;;;;;;;;;;;;;;;25.84;60.92;100719.19;5076270;28;19933;-70
2021/08/15 10:45:26;;;;;;;;;;;;;;;25.67;64.04;100711.41;5077908;28;20349;-69
2021/08/15 10:48:12;;;;;;;;;;;;;;;26.14;61.59;100708.25;5075265;28;19931;-70
2021/08/15 10:50:42;;;;;;;;;;;;;;;26.51;63.51;100697.19;5093750;28;20015;-65
2021/08/15 10:53:36;;;;;;;;;;;;;;;26.30;64.63;100698.47;5092581;28;20321;-65
2021/08/15 10:56:03;;;;;;;;;;;;;;;26.21;62.63;100685.94;5086203;28;19967;-64
2021/08/15 10:58:37;;;;;;;;;;;;;;;26.23;66.09;100695.75;5081574;28;19947;-65
2021/08/15 11:01:06;;;;;;;;;;;;;;;26.47;60.16;100684.81;5073455;28;20034;-65
2021/08/15 11:03:59;;;;;;;;;;;;;;;27.02;58.60;100680.31;5072688;28;21237;-65
2021/08/15 11:06:47;;;;;;;;;;;;;;;27.68;59.40;100672.91;5073042;28;19932;-65
2021/08/15 11:09:14;;;;;;;;;;;;;;;27.99;53.45;100667.22;5075364;28;19955;-65
2021/08/15 11:11:58;;;;;;;;;;;;;;;27.46;53.70;100666.19;5080426;28;19925;-65
2021/08/15 11:14:26;;;;;;;;;;;;;;;28.19;53.75;100664.09;5089233;28;20414;-66
2021/08/15 11:16:55;;;;;;;;;;;;;;;28.28;54.12;100662.66;5071086;28;20027;-65
2021/08/15 11:19:28;;;;;;;;;;;;;;;28.30;51.79;100665.19;5071733;28;19924;-71
2021/08/15 11:22:01;;;;;;;;;;;;;;;28.84;53.36;100662.19;5071702;28;20306;-66
2021/08/15 11:24:28;;;;;;;;;;;;;;;28.52;48.19;100659.81;5071284;28;19971;-66
2021/08/15 11:26:54;;;;;;;;;;;;;;;29.17;44.32;100655.88;5076776;28;19954;-66
2021/08/15 11:29:21;;;;;;;;;;;;;;;29.46;44.61;100655.00;5091384;28;19959;-66
2021/08/15 11:31:48;;;;;;;;;;;;;;;28.67;45.74;100662.13;5086411;28;19929;-66
2021/08/15 11:34:15;;;;;;;;;;;;;;;28.11;47.18;100656.09;5071398;28;20459;-66
2021/08/15 11:36:41;;;;;;;;;;;;;;;27.97;46.17;100649.91;5074297;28;20022;-70
2021/08/15 11:39:08;;;;;;;;;;;;;;;28.22;46.84;100650.53;5089448;28;20011;-65
2021/08/15 11:41:35;;;;;;;;;;;;;;;28.70;47.05;100647.66;5086300;28;19931;-65
2021/08/15 11:44:02;;;;;;;;;;;;;;;28.40;44.56;100646.72;5090976;28;20455;-66
2021/08/15 11:46:28;;;;;;;;;;;;;;;28.32;44.93;100640.69;5091792;28;20090;-64
2021/08/15 11:48:54;;;;;;;;;;;;;;;28.27;45.89;100644.19;5091834;28;20022;-70
2021/08/15 11:51:22;;;;;;;;;;;;;;;28.86;45.33;100643.22;5072231;28;20015;-65
2021/08/15 11:53:48;;;;;;;;;;;;;;;29.27;44.29;100626.44;5076303;28;19928;-65
2021/08/15 11:56:15;;;;;;;;;;;;;;;29.82;43.41;100630.44;5095276;28;20027;-70
2021/08/15 11:58:45;;;;;;;;;;;;;;;30.32;43.18;100631.47;5094182;28;19930;-66
2021/08/15 12:01:11;;;;;;;;;;;;;;;29.98;40.27;100637.16;5084038;28;20352;-70
2021/08/15 12:03:37;;;;;;;;;;;;;;;29.60;42.12;100630.34;5065954;28;20509;-69
2021/08/15 12:06:06;;;;;;;;;;;;;;;30.05;42.56;100635.00;5076784;28;20427;-70
2021/08/15 12:08:34;;;;;;;;;;;;;;;29.33;42.22;100620.69;5081929;28;20303;-64
2021/08/15 12:11:01;;;;;;;;;;;;;;;29.28;45.25;100636.53;5087056;28;20027;-70
2021/08/15 12:13:32;;;;;;;;;;;;;;;29.35;43.19;100640.00;5084952;28;20028;-65
2021/08/15 12:16:09;;;;;;;;;;;;;;;30.06;44.88;100628.31;5082489;28;19928;-65
2021/08/15 12:18:38;;;;;;;;;;;;;;;30.13;41.81;100620.59;5074337;28;20372;-65
2021/08/15 12:21:15;;;;;;;;;;;;;;;30.40;41.68;100622.63;5074601;28;19929;-65
2021/08/15 12:23:57;;;;;;;;;;;;;;;30.22;42.96;100623.78;5074455;28;20023;-65
2021/08/15 12:26:25;;;;;;;;;;;;;;;30.14;44.31;100616.66;5075397;28;20019;-71
2021/08/15 12:28:55;;;;;;;;;;;;;;;30.48;44.50;100619.41;5073281;28;20037;-65
2021/08/15 12:31:22;;;;;;;;;;;;;;;29.16;44.39;100614.22;5087241;28;19931;-66
2021/08/15 12:33:49;;;;;;;;;;;;;;;29.67;47.40;100633.84;5093768;28;19985;-65